Time;durP1;ratioP1;P1;durP2;ratioP2;P2;SDS_P1;SDS_P2;PMS_P1;PMS_P2;Temp;Humidity;BMP_temperature;BMP_pressure;BME280_temperature;BME280_humidity;BME280_pressure;Samples;Min_cycle;Max_cycle;Signal;HPM_P1;HPM_P2
2023/09/07 00:02:00;;;;;;;;;9.50;7.75;;;;;;;;5069250;28;8817;-81
2023/09/07 00:04:27;;;;;;;;;6.00;6.00;;;;;;;;5067999;28;8947;-82
2023/09/07 00:06:55;;;;;;;;;6.50;6.50;;;;;;;;5067945;28;8858;-82
2023/09/07 00:09:23;;;;;;;;;9.50;8.00;;;;;;;;5067698;28;8844;-82
2023/09/07 00:11:50;;;;;;;;;6.75;6.75;;;;;;;;5068303;28;8837;-82
2023/09/07 00:14:17;;;;;;;;;7.25;7.25;;;;;;;;5067857;28;8852;-81
2023/09/07 00:16:45;;;;;;;;;9.50;7.75;;;;;;;;5067792;28;8886;-83
2023/09/07 00:19:13;;;;;;;;;9.00;7.00;;;;;;;;5067049;28;9714;-86
2023/09/07 00:21:40;;;;;;;;;8.00;8.00;;;;;;;;5067922;28;9646;-83
2023/09/07 00:24:08;;;;;;;;;9.25;7.25;;;;;;;;5067140;28;8840;-82
2023/09/07 00:26:35;;;;;;;;;7.75;6.00;;;;;;;;5067982;28;8941;-82
2023/09/07 00:29:02;;;;;;;;;7.25;7.25;;;;;;;;5067907;28;8872;-82
2023/09/07 00:31:30;;;;;;;;;8.50;7.00;;;;;;;;5067361;28;8834;-82
2023/09/07 00:33:57;;;;;;;;;6.25;6.25;;;;;;;;5067687;28;8884;-82
2023/09/07 00:36:25;;;;;;;;;9.50;7.25;;;;;;;;5068077;28;9603;-80
2023/09/07 00:38:53;;;;;;;;;7.00;7.00;;;;;;;;5067840;28;8856;-82
2023/09/07 00:41:20;;;;;;;;;7.67;7.67;;;;;;;;5067897;28;8864;-82
2023/09/07 00:43:47;;;;;;;;;7.75;7.00;;;;;;;;5067217;28;8875;-83
2023/09/07 00:46:15;;;;;;;;;6.00;6.00;;;;;;;;5067664;28;9669;-80
2023/09/07 00:48:43;;;;;;;;;8.75;4.50;;;;;;;;5067070;28;8840;-82
2023/09/07 00:51:10;;;;;;;;;6.00;6.00;;;;;;;;5080841;28;8846;-81
2023/09/07 00:53:39;;;;;;;;;7.50;5.75;;;;;;;;5068074;28;8861;-84
2023/09/07 00:56:07;;;;;;;;;10.25;8.50;;;;;;;;5067509;28;8837;-82
2023/09/07 00:58:34;;;;;;;;;8.00;8.00;;;;;;;;5067402;28;8860;-82
2023/09/07 01:01:02;;;;;;;;;9.25;7.75;;;;;;;;5066179;28;8780;-82
2023/09/07 01:03:29;;;;;;;;;6.75;6.75;;;;;;;;5067499;28;8879;-82
2023/09/07 01:06:03;;;;;;;;;6.50;6.00;;;;;;;;5067179;28;9615;-82
2023/09/07 01:08:34;;;;;;;;;6.50;6.50;;;;;;;;5067400;28;8857;-81
2023/09/07 01:11:03;;;;;;;;;8.00;6.25;;;;;;;;5070528;28;8913;-80
2023/09/07 01:13:30;;;;;;;;;6.25;6.25;;;;;;;;5070808;28;9619;-81
2023/09/07 01:15:57;;;;;;;;;7.50;6.75;;;;;;;;5070629;28;8844;-84
2023/09/07 01:18:25;;;;;;;;;6.75;6.75;;;;;;;;5071298;28;9626;-80
2023/09/07 01:20:53;;;;;;;;;9.00;7.00;;;;;;;;5070872;28;8936;-81
2023/09/07 01:23:22;;;;;;;;;6.75;6.75;;;;;;;;5072563;28;8860;-81
2023/09/07 01:25:50;;;;;;;;;9.67;8.00;;;;;;;;5072280;28;8878;-81
2023/09/07 01:28:21;;;;;;;;;11.25;10.50;;;;;;;;5074054;28;8867;-83
2023/09/07 01:30:48;;;;;;;;;9.50;7.75;;;;;;;;5064742;28;8852;-80
2023/09/07 01:33:15;;;;;;;;;10.25;10.25;;;;;;;;5082018;28;8876;-81
2023/09/07 01:35:43;;;;;;;;;8.00;8.00;;;;;;;;5073634;28;8887;-83
2023/09/07 01:38:10;;;;;;;;;8.50;8.50;;;;;;;;5071481;28;9007;-81
2023/09/07 01:40:40;;;;;;;;;11.00;9.50;;;;;;;;5070428;28;9599;-81
2023/09/07 01:43:07;;;;;;;;;11.50;10.00;;;;;;;;5070523;28;8844;-82
2023/09/07 01:45:35;;;;;;;;;9.25;9.25;;;;;;;;5069522;28;8939;-81
2023/09/07 01:48:06;;;;;;;;;12.25;10.50;;;;;;;;5069865;28;8828;-81
2023/09/07 01:50:34;;;;;;;;;10.00;10.00;;;;;;;;5069652;28;8925;-81
2023/09/07 01:53:04;;;;;;;;;10.50;10.00;;;;;;;;5069680;28;8870;-81
2023/09/07 01:55:32;;;;;;;;;10.75;10.50;;;;;;;;5071150;28;8872;-83
2023/09/07 01:57:59;;;;;;;;;8.25;8.00;;;;;;;;5069871;28;8836;-83
2023/09/07 02:00:26;;;;;;;;;13.00;11.25;;;;;;;;5068795;28;8771;-81
2023/09/07 02:02:54;;;;;;;;;14.75;13.00;;;;;;;;5070402;28;8930;-81
2023/09/07 02:05:21;;;;;;;;;13.00;10.75;;;;;;;;5070703;28;8862;-83
2023/09/07 02:07:49;;;;;;;;;10.25;8.75;;;;;;;;5070138;28;8864;-82
2023/09/07 02:10:17;;;;;;;;;9.25;9.25;;;;;;;;5070532;28;8854;-83
2023/09/07 02:12:46;;;;;;;;;9.75;8.75;;;;;;;;5069074;28;8879;-81
2023/09/07 02:15:14;;;;;;;;;12.00;11.00;;;;;;;;5069936;28;8860;-81
2023/09/07 02:17:44;;;;;;;;;8.25;8.25;;;;;;;;5069048;28;8930;-80
2023/09/07 02:20:12;;;;;;;;;10.75;10.25;;;;;;;;5069744;28;8848;-82
2023/09/07 02:22:39;;;;;;;;;10.25;10.25;;;;;;;;5068652;28;9603;-85
2023/09/07 02:25:07;;;;;;;;;12.00;10.50;;;;;;;;5069287;28;8860;-81
2023/09/07 02:27:35;;;;;;;;;9.50;9.50;;;;;;;;5069058;28;8848;-81
2023/09/07 02:30:05;;;;;;;;;9.00;9.00;;;;;;;;5068567;28;8848;-81
2023/09/07 02:32:34;;;;;;;;;11.25;9.25;;;;;;;;5069191;28;8863;-81
2023/09/07 02:35:01;;;;;;;;;10.50;10.50;;;;;;;;5068937;28;8840;-83
2023/09/07 02:37:29;;;;;;;;;8.75;8.75;;;;;;;;5068858;28;8873;-83
2023/09/07 02:39:58;;;;;;;;;12.00;10.75;;;;;;;;5069055;28;8860;-79
2023/09/07 02:42:25;;;;;;;;;10.75;10.75;;;;;;;;5068882;28;8860;-80
2023/09/07 02:44:53;;;;;;;;;10.25;9.75;;;;;;;;5069518;28;8919;-81
2023/09/07 02:47:21;;;;;;;;;7.75;7.75;;;;;;;;5069285;28;8872;-81
2023/09/07 02:49:50;;;;;;;;;10.00;10.00;;;;;;;;5068608;28;8848;-83
2023/09/07 02:52:17;;;;;;;;;8.75;8.75;;;;;;;;5068091;28;8878;-81
2023/09/07 02:54:44;;;;;;;;;10.50;10.50;;;;;;;;5071044;28;9715;-80
2023/09/07 02:57:12;;;;;;;;;9.50;9.50;;;;;;;;5073599;28;8856;-82
2023/09/07 02:59:39;;;;;;;;;10.25;9.00;;;;;;;;5069832;28;9643;-79
2023/09/07 03:02:07;;;;;;;;;10.75;10.25;;;;;;;;5068643;28;8817;-80
2023/09/07 03:04:34;;;;;;;;;8.50;8.00;;;;;;;;5070702;28;8857;-79
2023/09/07 03:07:03;;;;;;;;;10.25;10.25;;;;;;;;5072582;28;8978;-81
2023/09/07 03:09:30;;;;;;;;;10.25;10.25;;;;;;;;5071861;28;8891;-80
2023/09/07 03:11:58;;;;;;;;;9.25;9.25;;;;;;;;5071902;28;8876;-82
2023/09/07 03:14:25;;;;;;;;;10.75;10.00;;;;;;;;5071241;28;8999;-85
2023/09/07 03:16:54;;;;;;;;;11.50;11.50;;;;;;;;5069174;28;8870;-81
2023/09/07 03:19:21;;;;;;;;;11.75;11.75;;;;;;;;5069305;28;9611;-84
2023/09/07 03:21:48;;;;;;;;;10.25;10.25;;;;;;;;5069636;28;8852;-81
2023/09/07 03:24:17;;;;;;;;;11.75;11.75;;;;;;;;5069074;28;8988;-83
2023/09/07 03:26:44;;;;;;;;;12.00;12.00;;;;;;;;5068599;28;9008;-82
2023/09/07 03:29:11;;;;;;;;;8.50;8.50;;;;;;;;5067799;28;8840;-81
2023/09/07 03:31:39;;;;;;;;;12.25;11.00;;;;;;;;5067583;28;8808;-84
2023/09/07 03:34:06;;;;;;;;;11.50;11.50;;;;;;;;5068415;28;9458;-82
2023/09/07 03:36:33;;;;;;;;;12.75;12.25;;;;;;;;5068344;28;8835;-80
2023/09/07 03:39:00;;;;;;;;;10.75;10.75;;;;;;;;5068043;28;9662;-82
2023/09/07 03:41:30;;;;;;;;;11.50;11.50;;;;;;;;5068929;28;8979;-81
2023/09/07 03:43:58;;;;;;;;;11.25;9.50;;;;;;;;5069042;28;8905;-81
2023/09/07 03:46:26;;;;;;;;;9.00;9.00;;;;;;;;5067368;28;8844;-82
2023/09/07 03:48:53;;;;;;;;;11.75;11.75;;;;;;;;5067391;28;9684;-81
2023/09/07 03:51:20;;;;;;;;;11.25;11.25;;;;;;;;5067628;28;8852;-81
2023/09/07 03:53:47;;;;;;;;;13.00;12.25;;;;;;;;5066547;28;9643;-81
2023/09/07 03:56:14;;;;;;;;;15.00;14.00;;;;;;;;5067644;28;8837;-81
2023/09/07 03:58:43;;;;;;;;;12.00;12.00;;;;;;;;5066754;28;8987;-81
2023/09/07 04:01:10;;;;;;;;;12.25;12.25;;;;;;;;5067214;28;8924;-88
2023/09/07 04:03:37;;;;;;;;;13.25;13.25;;;;;;;;5068169;28;8870;-83
2023/09/07 04:06:05;;;;;;;;;12.50;12.50;;;;;;;;5069502;28;8967;-82
2023/09/07 04:08:32;;;;;;;;;13.00;13.00;;;;;;;;5070019;28;8976;-82
2023/09/07 04:11:03;;;;;;;;;14.50;12.50;;;;;;;;5067614;28;8850;-81
2023/09/07 04:13:31;;;;;;;;;15.25;14.00;;;;;;;;5063443;28;8862;-82
2023/09/07 04:15:59;;;;;;;;;9.25;9.25;;;;;;;;5067286;28;8840;-82
2023/09/07 04:18:27;;;;;;;;;12.75;12.75;;;;;;;;5067574;28;8848;-82
2023/09/07 04:20:54;;;;;;;;;11.25;11.25;;;;;;;;5067513;28;8840;-81
2023/09/07 04:23:21;;;;;;;;;14.00;14.00;;;;;;;;5068010;28;8832;-80
2023/09/07 04:25:48;;;;;;;;;12.75;12.75;;;;;;;;5067128;28;8890;-80
2023/09/07 04:28:16;;;;;;;;;16.75;14.25;;;;;;;;5068086;28;8856;-80
2023/09/07 04:30:43;;;;;;;;;12.00;12.00;;;;;;;;5067002;28;8839;-80
2023/09/07 04:33:12;;;;;;;;;13.00;13.00;;;;;;;;5068190;28;8860;-79
2023/09/07 04:35:39;;;;;;;;;13.75;12.50;;;;;;;;5068820;28;8850;-79
2023/09/07 04:38:06;;;;;;;;;11.75;11.75;;;;;;;;5070314;28;8922;-80
2023/09/07 04:40:33;;;;;;;;;13.25;12.00;;;;;;;;5070843;28;8870;-80
2023/09/07 04:43:01;;;;;;;;;13.50;12.00;;;;;;;;5072619;28;8864;-81
2023/09/07 04:45:28;;;;;;;;;13.25;13.00;;;;;;;;5074464;28;8864;-80
2023/09/07 04:47:55;;;;;;;;;14.00;11.00;;;;;;;;5075051;28;8841;-78
2023/09/07 04:50:24;;;;;;;;;12.00;11.25;;;;;;;;5073343;28;8868;-79
2023/09/07 04:52:51;;;;;;;;;14.00;14.00;;;;;;;;5071096;28;8945;-79
2023/09/07 04:55:18;;;;;;;;;12.00;12.00;;;;;;;;5070654;28;8895;-80
2023/09/07 04:57:45;;;;;;;;;10.00;10.00;;;;;;;;5070422;28;8878;-81
2023/09/07 05:00:13;;;;;;;;;12.50;12.50;;;;;;;;5069729;28;8848;-79
2023/09/07 05:02:42;;;;;;;;;13.00;11.00;;;;;;;;5070683;28;8864;-79
2023/09/07 05:05:10;;;;;;;;;13.00;13.00;;;;;;;;5070641;28;8847;-79
2023/09/07 05:07:42;;;;;;;;;13.25;13.25;;;;;;;;5071379;28;8852;-77
2023/09/07 05:10:12;;;;;;;;;14.00;12.50;;;;;;;;5071212;28;8852;-82
2023/09/07 05:12:39;;;;;;;;;12.25;12.25;;;;;;;;5069856;28;8852;-78
2023/09/07 05:15:10;;;;;;;;;15.00;15.00;;;;;;;;5069930;28;8846;-77
2023/09/07 05:17:38;;;;;;;;;11.75;11.75;;;;;;;;5070473;28;8848;-80
2023/09/07 05:20:06;;;;;;;;;13.50;13.50;;;;;;;;5071495;28;8875;-87
2023/09/07 05:22:36;;;;;;;;;12.50;12.25;;;;;;;;5070362;28;8868;-80
2023/09/07 05:25:05;;;;;;;;;13.00;13.00;;;;;;;;5072974;28;8896;-81
2023/09/07 05:27:34;;;;;;;;;17.75;17.75;;;;;;;;5069305;28;8849;-80
2023/09/07 05:30:05;;;;;;;;;12.75;12.75;;;;;;;;5070249;28;9641;-80
2023/09/07 05:32:32;;;;;;;;;14.00;14.00;;;;;;;;5069392;28;8843;-81
2023/09/07 05:35:02;;;;;;;;;15.75;14.00;;;;;;;;5071947;28;8848;-81
2023/09/07 05:37:29;;;;;;;;;14.25;12.50;;;;;;;;5071331;28;8832;-81
2023/09/07 05:40:02;;;;;;;;;10.50;10.50;;;;;;;;5070376;28;8856;-83
2023/09/07 05:42:32;;;;;;;;;13.25;13.25;;;;;;;;5069389;28;8928;-83
2023/09/07 05:45:02;;;;;;;;;12.00;12.00;;;;;;;;5069692;28;8836;-82
2023/09/07 05:47:32;;;;;;;;;12.00;12.00;;;;;;;;5070290;28;8843;-82
2023/09/07 05:50:00;;;;;;;;;16.00;16.00;;;;;;;;5069507;28;8951;-83
2023/09/07 05:52:27;;;;;;;;;11.25;11.25;;;;;;;;5077438;28;9675;-80
2023/09/07 05:54:54;;;;;;;;;12.25;12.25;;;;;;;;5073540;28;8864;-81
2023/09/07 05:57:22;;;;;;;;;15.75;13.25;;;;;;;;5069179;28;8875;-82
2023/09/07 05:59:56;;;;;;;;;14.25;14.25;;;;;;;;5069373;28;8859;-84
2023/09/07 06:02:26;;;;;;;;;14.25;14.25;;;;;;;;5069590;28;8785;-82
2023/09/07 06:04:56;;;;;;;;;13.25;12.00;;;;;;;;5069660;28;8849;-84
2023/09/07 06:07:23;;;;;;;;;14.75;14.75;;;;;;;;5069777;28;8852;-81
2023/09/07 06:09:50;;;;;;;;;16.25;15.00;;;;;;;;5069925;28;8840;-81
2023/09/07 06:12:26;;;;;;;;;12.75;12.50;;;;;;;;5071783;28;8983;-83
2023/09/07 06:14:55;;;;;;;;;14.75;14.75;;;;;;;;5074720;28;8872;-83
2023/09/07 06:17:22;;;;;;;;;13.25;13.25;;;;;;;;5075537;28;8917;-81
2023/09/07 06:19:50;;;;;;;;;15.75;14.00;;;;;;;;5074944;28;8861;-82
2023/09/07 06:22:17;;;;;;;;;16.00;14.75;;;;;;;;5074224;28;8925;-82
2023/09/07 06:24:45;;;;;;;;;14.25;14.25;;;;;;;;5071822;28;9526;-85
2023/09/07 06:27:15;;;;;;;;;14.50;13.75;;;;;;;;5051267;28;8880;-83
2023/09/07 06:29:42;;;;;;;;;18.25;18.25;;;;;;;;5069107;28;9608;-85
2023/09/07 06:32:26;;;;;;;;;17.00;17.00;;;;;;;;5068582;28;8911;-85
2023/09/07 06:34:53;;;;;;;;;18.00;18.00;;;;;;;;5069481;28;9742;-84
2023/09/07 06:37:24;;;;;;;;;17.25;17.25;;;;;;;;5068570;28;8837;-84
2023/09/07 06:39:56;;;;;;;;;19.25;18.25;;;;;;;;5069311;28;8963;-85
2023/09/07 06:42:24;;;;;;;;;19.00;19.00;;;;;;;;5069580;28;8860;-88
2023/09/07 06:44:52;;;;;;;;;15.75;15.75;;;;;;;;5069091;28;8840;-87
2023/09/07 06:47:20;;;;;;;;;21.50;21.50;;;;;;;;5070026;28;8850;-85
2023/09/07 06:49:48;;;;;;;;;15.25;15.25;;;;;;;;5069611;28;8991;-85
2023/09/07 06:52:17;;;;;;;;;21.00;18.00;;;;;;;;5070514;28;8864;-86
2023/09/07 06:54:47;;;;;;;;;17.25;17.25;;;;;;;;5071751;28;8868;-87
2023/09/07 06:57:14;;;;;;;;;18.50;17.00;;;;;;;;5069494;28;8860;-87
2023/09/07 06:59:43;;;;;;;;;18.75;18.50;;;;;;;;5068812;28;8853;-85
2023/09/07 07:02:10;;;;;;;;;18.75;18.75;;;;;;;;5057280;28;8820;-85
2023/09/07 07:04:39;;;;;;;;;20.25;18.75;;;;;;;;5068417;28;8857;-85
2023/09/07 07:07:06;;;;;;;;;20.50;18.25;;;;;;;;5068691;28;8860;-84
2023/09/07 07:09:36;;;;;;;;;18.75;15.75;;;;;;;;5066785;28;8926;-84
2023/09/07 07:12:04;;;;;;;;;16.75;14.50;;;;;;;;5068447;28;8933;-84
2023/09/07 07:14:34;;;;;;;;;19.75;16.75;;;;;;;;5067873;28;8825;-84
2023/09/07 07:17:04;;;;;;;;;13.00;13.00;;;;;;;;5068546;28;8837;-83
2023/09/07 07:19:32;;;;;;;;;17.75;17.75;;;;;;;;5070373;28;8901;-82
2023/09/07 07:22:00;;;;;;;;;19.00;17.00;;;;;;;;5070063;28;8840;-83
2023/09/07 07:24:28;;;;;;;;;14.50;14.00;;;;;;;;5067714;28;8930;-83
2023/09/07 07:26:55;;;;;;;;;16.50;15.00;;;;;;;;5068379;28;8844;-83
2023/09/07 07:29:22;;;;;;;;;11.75;11.75;;;;;;;;5067758;28;8864;-82
2023/09/07 07:31:52;;;;;;;;;20.50;17.00;;;;;;;;5067597;28;9353;-82
2023/09/07 07:34:20;;;;;;;;;17.00;15.75;;;;;;;;5067537;28;9393;-83
2023/09/07 07:36:47;;;;;;;;;14.50;14.50;;;;;;;;5067223;28;8855;-83
2023/09/07 07:39:20;;;;;;;;;14.25;14.25;;;;;;;;5067562;28;8833;-83
2023/09/07 07:41:48;;;;;;;;;15.75;14.75;;;;;;;;5067587;28;8876;-83
2023/09/07 07:44:15;;;;;;;;;16.50;16.50;;;;;;;;5056393;28;8977;-83
2023/09/07 07:46:42;;;;;;;;;18.00;15.50;;;;;;;;5069322;28;8832;-81
2023/09/07 07:49:10;;;;;;;;;16.00;14.75;;;;;;;;5071653;28;8845;-82
2023/09/07 07:51:38;;;;;;;;;15.20;15.00;;;;;;;;5072799;28;8898;-84
2023/09/07 07:54:06;;;;;;;;;15.20;13.40;;;;;;;;5073753;28;8860;-82
2023/09/07 07:56:34;;;;;;;;;14.40;14.40;;;;;;;;5072589;28;8949;-80
2023/09/07 07:59:03;;;;;;;;;12.80;11.40;;;;;;;;5072826;28;8848;-83
2023/09/07 08:01:30;;;;;;;;;13.20;13.20;;;;;;;;5067086;28;8795;-83
2023/09/07 08:03:57;;;;;;;;;12.80;11.20;;;;;;;;5067659;28;8881;-83
2023/09/07 08:06:24;;;;;;;;;15.40;14.00;;;;;;;;5066941;28;8829;-81
2023/09/07 08:08:52;;;;;;;;;13.80;13.00;;;;;;;;5068014;28;8852;-83
2023/09/07 08:11:21;;;;;;;;;14.80;12.80;;;;;;;;5066958;28;9285;-82
2023/09/07 08:13:52;;;;;;;;;11.40;11.40;;;;;;;;5067010;28;8859;-82
2023/09/07 08:16:23;;;;;;;;;12.20;12.00;;;;;;;;5067168;28;9646;-83
2023/09/07 08:18:52;;;;;;;;;13.60;12.20;;;;;;;;5069345;28;8906;-82
2023/09/07 08:21:22;;;;;;;;;14.00;13.60;;;;;;;;5070384;28;8845;-82
2023/09/07 08:23:53;;;;;;;;;11.40;10.60;;;;;;;;5071655;28;8994;-83
2023/09/07 08:26:21;;;;;;;;;12.20;11.40;;;;;;;;5071642;28;8857;-82
2023/09/07 08:28:50;;;;;;;;;10.80;10.80;;;;;;;;5070038;28;8975;-81
2023/09/07 08:31:21;;;;;;;;;12.80;12.00;;;;;;;;5060059;28;8804;-82
2023/09/07 08:33:51;;;;;;;;;12.20;12.20;;;;;;;;5070590;28;8872;-81
2023/09/07 08:36:22;;;;;;;;;14.80;14.80;;;;;;;;5070935;28;8998;-82
2023/09/07 08:38:49;;;;;;;;;15.40;13.60;;;;;;;;5070739;28;8990;-80
2023/09/07 08:41:16;;;;;;;;;12.60;11.20;;;;;;;;5071221;28;8864;-87
2023/09/07 08:43:47;;;;;;;;;15.80;11.80;;;;;;;;5070197;28;9458;-83
2023/09/07 08:46:20;;;;;;;;;15.00;10.40;;;;;;;;5071550;28;8853;-83
2023/09/07 08:48:48;;;;;;;;;9.00;9.00;;;;;;;;5071084;28;8883;-83
2023/09/07 08:51:16;;;;;;;;;12.00;11.20;;;;;;;;5071555;28;8861;-83
2023/09/07 08:53:46;;;;;;;;;10.00;10.00;;;;;;;;5070019;28;9306;-81
2023/09/07 08:56:14;;;;;;;;;12.40;12.40;;;;;;;;5070652;28;9691;-82
2023/09/07 08:58:41;;;;;;;;;13.20;11.80;;;;;;;;5070347;28;8879;-82
2023/09/07 09:01:09;;;;;;;;;13.80;11.60;;;;;;;;5070045;28;8780;-81
2023/09/07 09:03:38;;;;;;;;;9.60;9.60;;;;;;;;5069876;28;8860;-81
2023/09/07 09:06:06;;;;;;;;;12.00;12.00;;;;;;;;5070445;28;8856;-84
2023/09/07 09:08:43;;;;;;;;;12.80;11.00;;;;;;;;5070613;28;8836;-83
2023/09/07 09:11:10;;;;;;;;;10.00;9.00;;;;;;;;5070373;28;8880;-83
2023/09/07 09:13:38;;;;;;;;;10.20;7.60;;;;;;;;5070823;28;8883;-82
2023/09/07 09:16:05;;;;;;;;;9.00;9.00;;;;;;;;5070216;28;8937;-83
2023/09/07 09:18:32;;;;;;;;;11.00;11.00;;;;;;;;5053063;28;8887;-84
2023/09/07 09:21:01;;;;;;;;;8.40;8.40;;;;;;;;5071866;28;8906;-84
2023/09/07 09:23:32;;;;;;;;;10.40;9.40;;;;;;;;5075107;28;8864;-83
2023/09/07 09:26:03;;;;;;;;;13.20;10.00;;;;;;;;5076783;28;8836;-83
2023/09/07 09:28:31;;;;;;;;;9.40;9.40;;;;;;;;5075948;28;8845;-83
2023/09/07 09:31:01;;;;;;;;;11.60;9.80;;;;;;;;5074931;28;8809;-84
2023/09/07 09:33:31;;;;;;;;;8.40;8.40;;;;;;;;5075037;28;8963;-85
2023/09/07 09:35:59;;;;;;;;;11.20;11.00;;;;;;;;5071604;28;9732;-85
2023/09/07 09:38:27;;;;;;;;;8.40;8.40;;;;;;;;5070017;28;8876;-85
2023/09/07 09:40:54;;;;;;;;;10.00;8.40;;;;;;;;5070535;28;8863;-83
2023/09/07 09:43:23;;;;;;;;;9.40;8.40;;;;;;;;5071796;28;8942;-83
2023/09/07 09:45:52;;;;;;;;;10.00;10.00;;;;;;;;5071361;28;8860;-85
2023/09/07 09:48:20;;;;;;;;;10.00;10.00;;;;;;;;5069568;28;8872;-85
2023/09/07 09:50:50;;;;;;;;;8.00;8.00;;;;;;;;5069997;28;8880;-85
2023/09/07 09:53:20;;;;;;;;;10.60;9.00;;;;;;;;5070215;28;8853;-87
2023/09/07 09:55:52;;;;;;;;;10.00;10.00;;;;;;;;5070516;28;8902;-86
2023/09/07 09:58:19;;;;;;;;;9.00;8.60;;;;;;;;5070693;28;8861;-85
2023/09/07 10:00:49;;;;;;;;;9.20;9.20;;;;;;;;5070804;28;8864;-86
2023/09/07 10:03:20;;;;;;;;;9.60;9.60;;;;;;;;5072012;28;9615;-86
2023/09/07 10:05:47;;;;;;;;;10.40;10.40;;;;;;;;5072206;28;8868;-86
2023/09/07 10:08:16;;;;;;;;;11.00;8.00;;;;;;;;5070879;28;8947;-85
2023/09/07 10:10:47;;;;;;;;;10.60;10.40;;;;;;;;5070348;28;8972;-86
2023/09/07 10:13:15;;;;;;;;;8.60;8.60;;;;;;;;5070197;28;8844;-86
2023/09/07 10:15:45;;;;;;;;;12.40;10.40;;;;;;;;5070894;28;8841;-93
2023/09/07 10:18:14;;;;;;;;;11.00;9.00;;;;;;;;5078859;28;8852;-90
2023/09/07 10:20:55;;;;;;;;;10.00;10.00;;;;;;;;5072058;28;8864;-89
2023/09/07 10:23:35;;;;;;;;;11.80;10.00;;;;;;;;5062180;28;8876;-91
2023/09/07 10:26:05;;;;;;;;;9.60;9.20;;;;;;;;5077599;28;8840;-90
2023/09/07 10:28:33;;;;;;;;;10.40;9.40;;;;;;;;5076039;28;8860;-89
2023/09/07 10:31:04;;;;;;;;;10.80;10.80;;;;;;;;5064122;28;8817;-91
2023/09/07 10:33:32;;;;;;;;;8.20;8.20;;;;;;;;5056065;28;8864;-90
2023/09/07 10:35:59;;;;;;;;;8.40;8.40;;;;;;;;5070877;28;8860;-87
2023/09/07 10:38:27;;;;;;;;;7.60;7.60;;;;;;;;5071479;28;8957;-87
2023/09/07 10:41:03;;;;;;;;;9.20;9.20;;;;;;;;5069838;28;8978;-89
2023/09/07 10:43:34;;;;;;;;;9.60;9.60;;;;;;;;5070517;28;8886;-85
2023/09/07 10:46:02;;;;;;;;;7.00;7.00;;;;;;;;5070911;28;8841;-93
2023/09/07 10:48:34;;;;;;;;;9.60;9.60;;;;;;;;5069731;28;8864;-92
2023/09/07 10:51:05;;;;;;;;;10.00;10.00;;;;;;;;5070775;28;8856;-88
2023/09/07 10:53:33;;;;;;;;;9.20;8.00;;;;;;;;5070596;28;8849;-86
2023/09/07 10:56:03;;;;;;;;;9.80;9.80;;;;;;;;5072199;28;8880;-92
2023/09/07 10:58:33;;;;;;;;;8.40;8.40;;;;;;;;5073744;28;8947;-90
2023/09/07 11:01:01;;;;;;;;;10.40;8.40;;;;;;;;5075058;28;8787;-89
2023/09/07 11:03:30;;;;;;;;;7.40;7.40;;;;;;;;5075213;28;8941;-90
2023/09/07 11:06:00;;;;;;;;;7.60;7.60;;;;;;;;5075547;28;8991;-90
2023/09/07 11:08:31;;;;;;;;;7.40;7.40;;;;;;;;5075163;28;8883;-89
2023/09/07 11:10:58;;;;;;;;;6.60;6.60;;;;;;;;5074501;28;9658;-85
2023/09/07 11:13:26;;;;;;;;;6.00;6.00;;;;;;;;5072255;28;9024;-88
2023/09/07 11:15:57;;;;;;;;;7.00;7.00;;;;;;;;5070370;28;8844;-86
2023/09/07 11:18:24;;;;;;;;;7.80;7.00;;;;;;;;5069481;28;8917;-86
2023/09/07 11:20:53;;;;;;;;;13.40;8.20;;;;;;;;5068694;28;8891;-84
2023/09/07 11:23:23;;;;;;;;;8.80;8.80;;;;;;;;5068919;28;8922;-87
2023/09/07 11:25:51;;;;;;;;;8.00;8.00;;;;;;;;5066617;28;8845;-88
2023/09/07 11:28:22;;;;;;;;;8.00;7.00;;;;;;;;5058684;28;8848;-87
2023/09/07 11:30:53;;;;;;;;;6.40;6.40;;;;;;;;5068248;28;8800;-86
2023/09/07 11:33:22;;;;;;;;;7.00;7.00;;;;;;;;5069563;28;8972;-86
2023/09/07 11:35:50;;;;;;;;;8.00;7.00;;;;;;;;5069715;28;8856;-86
2023/09/07 11:38:18;;;;;;;;;9.00;9.00;;;;;;;;5071718;28;8972;-86
2023/09/07 11:40:45;;;;;;;;;8.00;8.00;;;;;;;;5070443;28;8849;-87
2023/09/07 11:43:13;;;;;;;;;7.00;7.00;;;;;;;;5069099;28;8887;-86
2023/09/07 11:45:40;;;;;;;;;8.40;8.40;;;;;;;;5068284;28;9641;-86
2023/09/07 11:48:09;;;;;;;;;10.00;10.00;;;;;;;;5069045;28;8848;-86
2023/09/07 11:50:40;;;;;;;;;9.20;8.00;;;;;;;;5068002;28;9599;-85
2023/09/07 11:53:08;;;;;;;;;9.20;9.20;;;;;;;;5067963;28;8856;-85
2023/09/07 11:55:35;;;;;;;;;9.00;9.00;;;;;;;;5056526;28;8841;-86
2023/09/07 11:58:02;;;;;;;;;8.40;8.40;;;;;;;;5068609;28;8975;-86
2023/09/07 12:00:31;;;;;;;;;8.80;8.80;;;;;;;;5067948;28;8887;-86
2023/09/07 12:02:58;;;;;;;;;7.60;7.60;;;;;;;;5068056;28;8991;-86
2023/09/07 12:05:25;;;;;;;;;10.00;9.00;;;;;;;;5068563;28;8872;-85
2023/09/07 12:07:54;;;;;;;;;8.20;8.20;;;;;;;;5067964;28;8852;-86
2023/09/07 12:10:21;;;;;;;;;8.00;8.00;;;;;;;;5068740;28;8929;-86
2023/09/07 12:12:52;;;;;;;;;10.00;8.40;;;;;;;;5067787;28;9710;-86
2023/09/07 12:15:19;;;;;;;;;6.20;6.20;;;;;;;;5068720;28;8856;-87
2023/09/07 12:17:46;;;;;;;;;9.00;9.00;;;;;;;;5067637;28;8880;-86
2023/09/07 12:20:14;;;;;;;;;8.40;7.60;;;;;;;;5068900;28;8868;-87
2023/09/07 12:22:41;;;;;;;;;8.00;8.00;;;;;;;;5067888;28;8856;-87
2023/09/07 12:25:13;;;;;;;;;7.40;7.40;;;;;;;;5068902;28;8844;-87
2023/09/07 12:27:42;;;;;;;;;8.20;8.20;;;;;;;;5068310;28;8877;-88
2023/09/07 12:30:12;;;;;;;;;10.20;8.80;;;;;;;;5068171;28;9696;-86
2023/09/07 12:32:40;;;;;;;;;7.40;7.40;;;;;;;;5069538;28;8856;-86
2023/09/07 12:35:08;;;;;;;;;5.60;5.40;;;;;;;;5072241;28;8977;-87
2023/09/07 12:37:36;;;;;;;;;7.80;7.80;;;;;;;;5072638;28;8856;-86
2023/09/07 12:40:11;;;;;;;;;9.80;9.40;;;;;;;;5072861;28;8848;-87
2023/09/07 12:42:40;;;;;;;;;9.40;9.40;;;;;;;;5072928;28;8864;-88
2023/09/07 12:45:09;;;;;;;;;9.20;7.20;;;;;;;;5071453;28;8852;-85
2023/09/07 12:47:36;;;;;;;;;8.60;8.60;;;;;;;;5067999;28;8849;-86
2023/09/07 12:50:04;;;;;;;;;9.60;9.60;;;;;;;;5067879;28;8857;-88
2023/09/07 12:52:33;;;;;;;;;7.80;7.80;;;;;;;;5068060;28;8872;-87
2023/09/07 12:55:01;;;;;;;;;8.40;7.60;;;;;;;;5067894;28;8887;-88
2023/09/07 12:57:29;;;;;;;;;7.80;7.80;;;;;;;;5067737;28;8876;-90
2023/09/07 12:59:59;;;;;;;;;5.80;5.80;;;;;;;;5067603;28;8986;-87
2023/09/07 13:02:27;;;;;;;;;6.80;6.80;;;;;;;;5067234;28;8801;-88
2023/09/07 13:04:55;;;;;;;;;9.20;8.60;;;;;;;;5068436;28;8876;-87
2023/09/07 13:07:22;;;;;;;;;8.80;7.80;;;;;;;;5072015;28;8849;-88
2023/09/07 13:09:50;;;;;;;;;7.80;6.80;;;;;;;;5071885;28;8848;-88
2023/09/07 13:12:17;;;;;;;;;6.80;6.80;;;;;;;;5073832;28;8868;-89
2023/09/07 13:14:44;;;;;;;;;5.20;5.20;;;;;;;;5074652;28;9011;-88
2023/09/07 13:17:15;;;;;;;;;9.40;8.00;;;;;;;;5078735;28;8884;-91
2023/09/07 13:19:42;;;;;;;;;6.20;6.20;;;;;;;;5074409;28;8846;-90
2023/09/07 13:22:10;;;;;;;;;4.80;4.80;;;;;;;;5072260;28;8875;-89
2023/09/07 13:24:37;;;;;;;;;7.80;7.80;;;;;;;;5071299;28;8974;-88
2023/09/07 13:27:08;;;;;;;;;6.80;6.80;;;;;;;;5071713;28;8860;-86
2023/09/07 13:29:35;;;;;;;;;7.00;7.00;;;;;;;;5071222;28;8864;-87
2023/09/07 13:32:10;;;;;;;;;7.80;7.80;;;;;;;;5070938;28;8793;-88
2023/09/07 13:34:39;;;;;;;;;6.60;6.60;;;;;;;;5061946;28;8860;-88
2023/09/07 13:37:06;;;;;;;;;7.40;7.40;;;;;;;;5072237;28;8854;-86
2023/09/07 13:39:34;;;;;;;;;6.40;6.00;;;;;;;;5053453;28;8856;-87
2023/09/07 13:42:01;;;;;;;;;5.40;5.40;;;;;;;;5071575;28;8884;-88
2023/09/07 13:44:28;;;;;;;;;7.00;7.00;;;;;;;;5069812;28;8845;-87
2023/09/07 13:46:56;;;;;;;;;9.80;7.80;;;;;;;;5070641;28;9405;-89
2023/09/07 13:49:23;;;;;;;;;8.00;8.00;;;;;;;;5071289;28;8844;-89
2023/09/07 13:51:52;;;;;;;;;7.60;7.60;;;;;;;;5070115;28;8866;-88
2023/09/07 13:54:19;;;;;;;;;6.00;6.00;;;;;;;;5071550;28;8848;-86
2023/09/07 13:56:46;;;;;;;;;7.00;7.00;;;;;;;;5071957;28;8948;-89
2023/09/07 13:59:15;;;;;;;;;6.20;6.20;;;;;;;;5072576;28;8865;-86
2023/09/07 14:01:43;;;;;;;;;7.00;6.60;;;;;;;;5070590;28;8800;-87
2023/09/07 14:04:10;;;;;;;;;6.60;6.60;;;;;;;;5071859;28;8861;-88
2023/09/07 14:06:37;;;;;;;;;6.60;6.60;;;;;;;;5071634;28;8845;-87
2023/09/07 14:09:07;;;;;;;;;7.60;7.60;;;;;;;;5074926;28;8898;-87
2023/09/07 14:11:36;;;;;;;;;8.00;8.00;;;;;;;;5074887;28;8857;-87
2023/09/07 14:14:03;;;;;;;;;8.80;8.80;;;;;;;;5076569;28;8872;-87
2023/09/07 14:16:30;;;;;;;;;7.40;5.80;;;;;;;;5075128;28;8867;-88
2023/09/07 14:18:57;;;;;;;;;7.60;7.60;;;;;;;;5076773;28;8868;-88
2023/09/07 14:21:25;;;;;;;;;6.00;6.00;;;;;;;;5073482;28;8859;-88
2023/09/07 14:23:52;;;;;;;;;8.00;8.00;;;;;;;;5052148;28;8885;-86
2023/09/07 14:26:22;;;;;;;;;6.80;6.40;;;;;;;;5069735;28;8864;-90
2023/09/07 14:28:50;;;;;;;;;9.50;6.25;;;;;;;;5069573;28;8845;-88
2023/09/07 14:31:17;;;;;;;;;7.20;6.40;;;;;;;;5069324;28;8823;-87
2023/09/07 14:33:44;;;;;;;;;7.60;7.60;;;;;;;;5069120;28;8886;-86
2023/09/07 14:36:12;;;;;;;;;7.80;7.80;;;;;;;;5058368;28;8882;-88
2023/09/07 14:38:41;;;;;;;;;6.40;6.40;;;;;;;;5070414;28;8879;-86
2023/09/07 14:41:11;;;;;;;;;5.20;5.20;;;;;;;;5081851;28;8852;-87
2023/09/07 14:43:40;;;;;;;;;7.20;7.20;;;;;;;;5069739;28;8892;-88
2023/09/07 14:46:07;;;;;;;;;10.00;8.40;;;;;;;;5071022;28;8863;-87
2023/09/07 14:48:34;;;;;;;;;6.60;6.60;;;;;;;;5072909;28;8843;-88
2023/09/07 14:51:02;;;;;;;;;6.00;6.00;;;;;;;;5072032;28;9002;-88